sensor_id;sensor_type;location;lat;lon;timestamp;P1;durP1;ratioP1;P2;durP2;ratioP2
15567;SDS011;7885;42.596;23.044;2022-12-18T00:00:44;5.97;;;5.10;;
15567;SDS011;7885;42.596;23.044;2022-12-18T00:03:13;8.27;;;6.30;;
15567;SDS011;7885;42.596;23.044;2022-12-18T00:05:47;6.67;;;5.97;;
15567;SDS011;7885;42.596;23.044;2022-12-18T00:08:14;26.17;;;15.93;;
15567;SDS011;7885;42.596;23.044;2022-12-18T00:10:41;9.80;;;6.53;;
15567;SDS011;7885;42.596;23.044;2022-12-18T00:13:08;7.83;;;6.27;;
15567;SDS011;7885;42.596;23.044;2022-12-18T00:15:36;13.13;;;7.93;;
15567;SDS011;7885;42.596;23.044;2022-12-18T00:18:03;9.23;;;6.80;;
15567;SDS011;7885;42.596;23.044;2022-12-18T00:20:30;6.70;;;5.97;;
15567;SDS011;7885;42.596;23.044;2022-12-18T00:23:02;7.07;;;6.17;;
15567;SDS011;7885;42.596;23.044;2022-12-18T00:25:29;9.83;;;7.50;;
15567;SDS011;7885;42.596;23.044;2022-12-18T00:27:58;6.80;;;6.10;;
15567;SDS011;7885;42.596;23.044;2022-12-18T00:30:25;10.70;;;7.50;;
15567;SDS011;7885;42.596;23.044;2022-12-18T00:32:52;12.13;;;8.40;;
15567;SDS011;7885;42.596;23.044;2022-12-18T00:35:18;14.17;;;8.90;;
15567;SDS011;7885;42.596;23.044;2022-12-18T00:37:45;10.53;;;7.63;;
15567;SDS011;7885;42.596;23.044;2022-12-18T00:40:13;6.80;;;6.03;;
15567;SDS011;7885;42.596;23.044;2022-12-18T00:42:40;7.47;;;6.60;;
15567;SDS011;7885;42.596;23.044;2022-12-18T00:45:21;10.17;;;6.90;;
15567;SDS011;7885;42.596;23.044;2022-12-18T00:47:51;7.53;;;6.73;;
15567;SDS011;7885;42.596;23.044;2022-12-18T00:50:18;7.27;;;6.57;;
15567;SDS011;7885;42.596;23.044;2022-12-18T00:52:45;7.60;;;6.90;;
15567;SDS011;7885;42.596;23.044;2022-12-18T00:55:12;7.03;;;5.97;;
15567;SDS011;7885;42.596;23.044;2022-12-18T00:57:40;8.03;;;7.23;;
15567;SDS011;7885;42.596;23.044;2022-12-18T01:00:08;7.10;;;6.40;;
15567;SDS011;7885;42.596;23.044;2022-12-18T01:02:37;6.83;;;6.17;;
15567;SDS011;7885;42.596;23.044;2022-12-18T01:05:04;8.83;;;7.40;;
15567;SDS011;7885;42.596;23.044;2022-12-18T01:07:31;7.13;;;6.43;;
15567;SDS011;7885;42.596;23.044;2022-12-18T01:09:57;8.67;;;6.33;;
15567;SDS011;7885;42.596;23.044;2022-12-18T01:12:25;7.27;;;6.57;;
15567;SDS011;7885;42.596;23.044;2022-12-18T01:14:52;7.23;;;6.53;;
15567;SDS011;7885;42.596;23.044;2022-12-18T01:17:19;7.90;;;7.10;;
15567;SDS011;7885;42.596;23.044;2022-12-18T01:19:46;7.90;;;7.00;;
15567;SDS011;7885;42.596;23.044;2022-12-18T01:22:12;8.20;;;7.27;;
15567;SDS011;7885;42.596;23.044;2022-12-18T01:24:39;7.63;;;6.90;;
15567;SDS011;7885;42.596;23.044;2022-12-18T01:27:06;10.77;;;8.27;;
15567;SDS011;7885;42.596;23.044;2022-12-18T01:29:34;13.87;;;9.73;;
15567;SDS011;7885;42.596;23.044;2022-12-18T01:32:01;12.80;;;9.03;;
15567;SDS011;7885;42.596;23.044;2022-12-18T01:34:27;9.17;;;7.10;;
15567;SDS011;7885;42.596;23.044;2022-12-18T01:36:54;6.63;;;6.03;;
15567;SDS011;7885;42.596;23.044;2022-12-18T01:39:21;8.00;;;7.20;;
15567;SDS011;7885;42.596;23.044;2022-12-18T01:41:47;6.80;;;6.00;;
15567;SDS011;7885;42.596;23.044;2022-12-18T01:44:55;6.70;;;6.10;;
15567;SDS011;7885;42.596;23.044;2022-12-18T01:47:28;5.83;;;5.33;;
15567;SDS011;7885;42.596;23.044;2022-12-18T01:49:58;6.33;;;5.73;;
15567;SDS011;7885;42.596;23.044;2022-12-18T01:52:28;7.13;;;6.40;;
15567;SDS011;7885;42.596;23.044;2022-12-18T01:54:57;6.53;;;5.93;;
15567;SDS011;7885;42.596;23.044;2022-12-18T01:57:24;7.13;;;6.43;;
15567;SDS011;7885;42.596;23.044;2022-12-18T01:59:52;7.70;;;6.90;;
15567;SDS011;7885;42.596;23.044;2022-12-18T02:02:25;6.67;;;5.87;;
15567;SDS011;7885;42.596;23.044;2022-12-18T02:04:53;7.53;;;6.73;;
15567;SDS011;7885;42.596;23.044;2022-12-18T02:07:22;7.50;;;6.80;;
15567;SDS011;7885;42.596;23.044;2022-12-18T02:09:59;6.87;;;6.27;;
15567;SDS011;7885;42.596;23.044;2022-12-18T02:12:31;7.97;;;7.17;;
15567;SDS011;7885;42.596;23.044;2022-12-18T02:15:09;7.00;;;6.30;;
15567;SDS011;7885;42.596;23.044;2022-12-18T02:17:41;7.10;;;5.93;;
15567;SDS011;7885;42.596;23.044;2022-12-18T02:20:13;7.70;;;6.90;;
15567;SDS011;7885;42.596;23.044;2022-12-18T02:22:48;6.87;;;6.23;;
15567;SDS011;7885;42.596;23.044;2022-12-18T02:25:26;7.63;;;6.90;;
15567;SDS011;7885;42.596;23.044;2022-12-18T02:28:08;6.93;;;6.33;;
15567;SDS011;7885;42.596;23.044;2022-12-18T02:30:39;7.20;;;6.50;;
15567;SDS011;7885;42.596;23.044;2022-12-18T02:33:08;7.27;;;6.57;;
15567;SDS011;7885;42.596;23.044;2022-12-18T02:35:37;18.97;;;13.10;;
15567;SDS011;7885;42.596;23.044;2022-12-18T02:38:07;9.57;;;8.33;;
15567;SDS011;7885;42.596;23.044;2022-12-18T02:40:34;8.33;;;7.10;;
15567;SDS011;7885;42.596;23.044;2022-12-18T02:43:02;5.97;;;5.37;;
15567;SDS011;7885;42.596;23.044;2022-12-18T02:45:34;7.03;;;6.33;;
15567;SDS011;7885;42.596;23.044;2022-12-18T02:48:01;6.70;;;6.00;;
15567;SDS011;7885;42.596;23.044;2022-12-18T02:50:30;6.27;;;5.67;;
15567;SDS011;7885;42.596;23.044;2022-12-18T02:53:06;7.10;;;6.13;;
15567;SDS011;7885;42.596;23.044;2022-12-18T02:55:45;6.60;;;6.00;;
15567;SDS011;7885;42.596;23.044;2022-12-18T02:58:25;5.43;;;4.93;;
15567;SDS011;7885;42.596;23.044;2022-12-18T03:00:58;5.97;;;5.47;;
15567;SDS011;7885;42.596;23.044;2022-12-18T03:03:33;5.70;;;5.20;;
15567;SDS011;7885;42.596;23.044;2022-12-18T03:06:06;5.67;;;5.17;;
15567;SDS011;7885;42.596;23.044;2022-12-18T03:08:37;5.23;;;4.73;;
15567;SDS011;7885;42.596;23.044;2022-12-18T03:11:08;6.23;;;5.63;;
15567;SDS011;7885;42.596;23.044;2022-12-18T03:13:36;6.17;;;5.57;;
15567;SDS011;7885;42.596;23.044;2022-12-18T03:16:09;6.13;;;5.50;;
15567;SDS011;7885;42.596;23.044;2022-12-18T03:18:39;6.57;;;5.97;;
15567;SDS011;7885;42.596;23.044;2022-12-18T03:21:11;6.60;;;5.90;;
15567;SDS011;7885;42.596;23.044;2022-12-18T03:23:42;6.37;;;5.70;;
15567;SDS011;7885;42.596;23.044;2022-12-18T03:26:12;5.83;;;5.23;;
15567;SDS011;7885;42.596;23.044;2022-12-18T03:28:44;6.20;;;5.60;;
15567;SDS011;7885;42.596;23.044;2022-12-18T03:31:17;6.50;;;5.50;;
15567;SDS011;7885;42.596;23.044;2022-12-18T03:33:47;5.67;;;5.13;;
15567;SDS011;7885;42.596;23.044;2022-12-18T03:36:18;7.83;;;6.53;;
15567;SDS011;7885;42.596;23.044;2022-12-18T03:38:44;9.13;;;5.63;;
15567;SDS011;7885;42.596;23.044;2022-12-18T03:41:15;6.30;;;5.70;;
15567;SDS011;7885;42.596;23.044;2022-12-18T03:43:48;9.83;;;8.13;;
15567;SDS011;7885;42.596;23.044;2022-12-18T03:46:23;8.97;;;7.67;;
15567;SDS011;7885;42.596;23.044;2022-12-18T03:48:55;8.00;;;6.60;;
15567;SDS011;7885;42.596;23.044;2022-12-18T03:51:26;8.40;;;7.03;;
15567;SDS011;7885;42.596;23.044;2022-12-18T03:54:00;7.80;;;6.97;;
15567;SDS011;7885;42.596;23.044;2022-12-18T03:56:30;7.83;;;6.60;;
15567;SDS011;7885;42.596;23.044;2022-12-18T03:59:01;8.40;;;7.30;;
15567;SDS011;7885;42.596;23.044;2022-12-18T04:01:32;8.13;;;6.80;;
15567;SDS011;7885;42.596;23.044;2022-12-18T04:04:03;7.20;;;6.50;;
15567;SDS011;7885;42.596;23.044;2022-12-18T04:06:32;7.93;;;7.10;;
15567;SDS011;7885;42.596;23.044;2022-12-18T04:09:00;7.77;;;6.97;;
15567;SDS011;7885;42.596;23.044;2022-12-18T04:11:27;7.97;;;7.17;;
15567;SDS011;7885;42.596;23.044;2022-12-18T04:13:55;7.97;;;7.13;;
15567;SDS011;7885;42.596;23.044;2022-12-18T04:16:22;9.30;;;7.87;;
15567;SDS011;7885;42.596;23.044;2022-12-18T04:18:50;13.77;;;11.73;;
15567;SDS011;7885;42.596;23.044;2022-12-18T04:21:17;11.87;;;10.07;;
15567;SDS011;7885;42.596;23.044;2022-12-18T04:23:44;11.57;;;10.17;;
15567;SDS011;7885;42.596;23.044;2022-12-18T04:26:10;9.20;;;8.10;;
15567;SDS011;7885;42.596;23.044;2022-12-18T04:28:37;7.93;;;7.00;;
15567;SDS011;7885;42.596;23.044;2022-12-18T04:31:04;8.87;;;7.10;;
15567;SDS011;7885;42.596;23.044;2022-12-18T04:33:31;9.13;;;7.30;;
15567;SDS011;7885;42.596;23.044;2022-12-18T04:35:59;9.10;;;8.20;;
15567;SDS011;7885;42.596;23.044;2022-12-18T04:38:26;9.07;;;8.17;;
15567;SDS011;7885;42.596;23.044;2022-12-18T04:40:52;10.10;;;9.07;;
15567;SDS011;7885;42.596;23.044;2022-12-18T04:43:19;8.90;;;7.60;;
15567;SDS011;7885;42.596;23.044;2022-12-18T04:45:46;10.30;;;9.20;;
15567;SDS011;7885;42.596;23.044;2022-12-18T04:48:12;9.27;;;8.27;;
15567;SDS011;7885;42.596;23.044;2022-12-18T04:50:39;9.33;;;8.43;;
15567;SDS011;7885;42.596;23.044;2022-12-18T04:53:07;8.47;;;7.63;;
15567;SDS011;7885;42.596;23.044;2022-12-18T04:55:34;10.00;;;8.47;;
15567;SDS011;7885;42.596;23.044;2022-12-18T04:58:01;9.83;;;8.27;;
15567;SDS011;7885;42.596;23.044;2022-12-18T05:00:27;11.40;;;8.70;;
15567;SDS011;7885;42.596;23.044;2022-12-18T05:02:54;10.00;;;8.73;;
15567;SDS011;7885;42.596;23.044;2022-12-18T05:05:21;11.87;;;9.67;;
15567;SDS011;7885;42.596;23.044;2022-12-18T05:07:47;12.83;;;10.53;;
15567;SDS011;7885;42.596;23.044;2022-12-18T05:10:15;11.93;;;9.60;;
15567;SDS011;7885;42.596;23.044;2022-12-18T05:12:42;11.53;;;10.23;;
15567;SDS011;7885;42.596;23.044;2022-12-18T05:15:37;11.50;;;9.03;;
15567;SDS011;7885;42.596;23.044;2022-12-18T05:18:04;10.00;;;8.87;;
15567;SDS011;7885;42.596;23.044;2022-12-18T05:20:31;10.20;;;9.17;;
15567;SDS011;7885;42.596;23.044;2022-12-18T05:22:58;10.07;;;8.97;;
15567;SDS011;7885;42.596;23.044;2022-12-18T05:25:24;11.07;;;9.87;;
15567;SDS011;7885;42.596;23.044;2022-12-18T05:27:51;10.73;;;9.37;;
15567;SDS011;7885;42.596;23.044;2022-12-18T05:30:18;11.73;;;9.37;;
15567;SDS011;7885;42.596;23.044;2022-12-18T05:32:46;11.97;;;9.60;;
15567;SDS011;7885;42.596;23.044;2022-12-18T05:35:13;16.37;;;12.73;;
15567;SDS011;7885;42.596;23.044;2022-12-18T05:37:39;19.50;;;13.50;;
15567;SDS011;7885;42.596;23.044;2022-12-18T05:40:06;15.47;;;12.10;;
15567;SDS011;7885;42.596;23.044;2022-12-18T05:42:34;13.80;;;10.90;;
15567;SDS011;7885;42.596;23.044;2022-12-18T05:45:00;12.80;;;10.67;;
15567;SDS011;7885;42.596;23.044;2022-12-18T05:47:27;13.27;;;11.30;;
15567;SDS011;7885;42.596;23.044;2022-12-18T05:49:56;12.33;;;10.37;;
15567;SDS011;7885;42.596;23.044;2022-12-18T05:52:23;13.53;;;11.53;;
15567;SDS011;7885;42.596;23.044;2022-12-18T05:54:49;15.73;;;11.33;;
15567;SDS011;7885;42.596;23.044;2022-12-18T05:57:16;13.93;;;12.10;;
15567;SDS011;7885;42.596;23.044;2022-12-18T05:59:43;14.67;;;11.73;;
15567;SDS011;7885;42.596;23.044;2022-12-18T06:02:10;14.50;;;12.17;;
15567;SDS011;7885;42.596;23.044;2022-12-18T06:04:36;16.23;;;12.73;;
15567;SDS011;7885;42.596;23.044;2022-12-18T06:07:04;15.70;;;12.73;;
15567;SDS011;7885;42.596;23.044;2022-12-18T06:09:31;14.23;;;12.27;;
15567;SDS011;7885;42.596;23.044;2022-12-18T06:11:58;13.53;;;11.23;;
15567;SDS011;7885;42.596;23.044;2022-12-18T06:14:24;13.60;;;11.80;;
15567;SDS011;7885;42.596;23.044;2022-12-18T06:16:51;15.73;;;12.07;;
15567;SDS011;7885;42.596;23.044;2022-12-18T06:19:18;14.43;;;11.90;;
15567;SDS011;7885;42.596;23.044;2022-12-18T06:21:45;13.83;;;11.17;;
15567;SDS011;7885;42.596;23.044;2022-12-18T06:24:13;14.03;;;11.37;;
15567;SDS011;7885;42.596;23.044;2022-12-18T06:26:39;16.07;;;12.00;;
15567;SDS011;7885;42.596;23.044;2022-12-18T06:29:06;13.70;;;11.87;;
15567;SDS011;7885;42.596;23.044;2022-12-18T06:31:33;16.57;;;12.50;;
15567;SDS011;7885;42.596;23.044;2022-12-18T06:34:01;15.43;;;12.33;;
15567;SDS011;7885;42.596;23.044;2022-12-18T06:36:29;24.40;;;17.47;;
15567;SDS011;7885;42.596;23.044;2022-12-18T06:38:55;19.70;;;14.70;;
15567;SDS011;7885;42.596;23.044;2022-12-18T06:41:24;26.73;;;18.47;;
15567;SDS011;7885;42.596;23.044;2022-12-18T06:43:51;20.57;;;14.87;;
15567;SDS011;7885;42.596;23.044;2022-12-18T06:46:17;14.10;;;11.77;;
15567;SDS011;7885;42.596;23.044;2022-12-18T06:48:46;14.33;;;12.70;;
15567;SDS011;7885;42.596;23.044;2022-12-18T06:51:15;16.53;;;14.43;;
15567;SDS011;7885;42.596;23.044;2022-12-18T06:53:42;20.03;;;15.80;;
15567;SDS011;7885;42.596;23.044;2022-12-18T06:56:09;17.17;;;13.50;;
15567;SDS011;7885;42.596;23.044;2022-12-18T06:58:37;20.80;;;16.63;;
15567;SDS011;7885;42.596;23.044;2022-12-18T07:01:05;20.10;;;15.47;;
15567;SDS011;7885;42.596;23.044;2022-12-18T07:03:33;19.23;;;14.97;;
15567;SDS011;7885;42.596;23.044;2022-12-18T07:06:00;18.80;;;14.80;;
15567;SDS011;7885;42.596;23.044;2022-12-18T07:08:28;20.37;;;16.83;;
15567;SDS011;7885;42.596;23.044;2022-12-18T07:10:55;18.87;;;15.33;;
15567;SDS011;7885;42.596;23.044;2022-12-18T07:13:22;23.43;;;18.40;;
15567;SDS011;7885;42.596;23.044;2022-12-18T07:15:50;16.60;;;14.00;;
15567;SDS011;7885;42.596;23.044;2022-12-18T07:18:17;18.00;;;15.03;;
15567;SDS011;7885;42.596;23.044;2022-12-18T07:20:43;16.57;;;14.47;;
15567;SDS011;7885;42.596;23.044;2022-12-18T07:23:11;16.60;;;14.17;;
15567;SDS011;7885;42.596;23.044;2022-12-18T07:25:37;18.03;;;15.03;;
15567;SDS011;7885;42.596;23.044;2022-12-18T07:28:04;20.13;;;16.53;;
15567;SDS011;7885;42.596;23.044;2022-12-18T07:30:31;20.13;;;15.00;;
15567;SDS011;7885;42.596;23.044;2022-12-18T07:32:59;16.37;;;13.77;;
15567;SDS011;7885;42.596;23.044;2022-12-18T07:35:26;17.43;;;14.50;;
15567;SDS011;7885;42.596;23.044;2022-12-18T07:37:53;23.20;;;19.37;;
15567;SDS011;7885;42.596;23.044;2022-12-18T07:40:19;18.07;;;15.20;;
15567;SDS011;7885;42.596;23.044;2022-12-18T07:42:46;18.60;;;15.33;;
15567;SDS011;7885;42.596;23.044;2022-12-18T07:45:13;24.03;;;19.90;;
15567;SDS011;7885;42.596;23.044;2022-12-18T07:47:40;23.53;;;18.27;;
15567;SDS011;7885;42.596;23.044;2022-12-18T07:50:09;17.67;;;15.17;;
15567;SDS011;7885;42.596;23.044;2022-12-18T07:52:35;17.67;;;14.63;;
15567;SDS011;7885;42.596;23.044;2022-12-18T07:55:02;13.83;;;12.27;;
15567;SDS011;7885;42.596;23.044;2022-12-18T07:57:29;20.53;;;16.07;;
15567;SDS011;7885;42.596;23.044;2022-12-18T07:59:56;17.97;;;14.70;;
15567;SDS011;7885;42.596;23.044;2022-12-18T08:02:23;16.57;;;14.30;;
15567;SDS011;7885;42.596;23.044;2022-12-18T08:04:49;18.47;;;14.53;;
15567;SDS011;7885;42.596;23.044;2022-12-18T08:10:39;19.43;;;15.43;;
15567;SDS011;7885;42.596;23.044;2022-12-18T08:13:06;22.70;;;17.53;;
15567;SDS011;7885;42.596;23.044;2022-12-18T08:15:32;26.90;;;20.93;;
15567;SDS011;7885;42.596;23.044;2022-12-18T08:17:59;26.50;;;21.10;;
15567;SDS011;7885;42.596;23.044;2022-12-18T08:20:26;19.80;;;15.73;;
15567;SDS011;7885;42.596;23.044;2022-12-18T08:22:53;19.93;;;14.77;;
15567;SDS011;7885;42.596;23.044;2022-12-18T08:25:19;17.67;;;15.03;;
15567;SDS011;7885;42.596;23.044;2022-12-18T08:27:48;15.30;;;13.03;;
15567;SDS011;7885;42.596;23.044;2022-12-18T08:30:14;16.53;;;13.97;;
15567;SDS011;7885;42.596;23.044;2022-12-18T08:32:41;19.20;;;15.30;;
15567;SDS011;7885;42.596;23.044;2022-12-18T08:35:08;18.37;;;15.10;;
15567;SDS011;7885;42.596;23.044;2022-12-18T08:37:36;16.67;;;12.97;;
15567;SDS011;7885;42.596;23.044;2022-12-18T08:40:04;19.33;;;16.00;;
15567;SDS011;7885;42.596;23.044;2022-12-18T08:42:31;19.10;;;15.87;;
15567;SDS011;7885;42.596;23.044;2022-12-18T08:45:17;27.23;;;20.50;;
15567;SDS011;7885;42.596;23.044;2022-12-18T08:47:43;21.57;;;16.83;;
15567;SDS011;7885;42.596;23.044;2022-12-18T08:50:10;20.17;;;17.20;;
15567;SDS011;7885;42.596;23.044;2022-12-18T08:52:38;23.73;;;18.47;;
15567;SDS011;7885;42.596;23.044;2022-12-18T08:55:05;21.13;;;17.13;;
15567;SDS011;7885;42.596;23.044;2022-12-18T08:57:32;20.10;;;16.50;;
15567;SDS011;7885;42.596;23.044;2022-12-18T08:59:59;23.67;;;17.80;;
15567;SDS011;7885;42.596;23.044;2022-12-18T09:02:27;20.90;;;16.77;;
15567;SDS011;7885;42.596;23.044;2022-12-18T09:04:54;20.27;;;16.10;;
15567;SDS011;7885;42.596;23.044;2022-12-18T09:07:21;19.87;;;16.57;;
15567;SDS011;7885;42.596;23.044;2022-12-18T09:09:47;20.47;;;16.03;;
15567;SDS011;7885;42.596;23.044;2022-12-18T09:12:14;18.80;;;15.97;;
15567;SDS011;7885;42.596;23.044;2022-12-18T09:14:41;19.93;;;14.80;;
15567;SDS011;7885;42.596;23.044;2022-12-18T09:17:08;22.37;;;16.50;;
15567;SDS011;7885;42.596;23.044;2022-12-18T09:19:36;21.63;;;16.50;;
15567;SDS011;7885;42.596;23.044;2022-12-18T09:22:02;19.60;;;15.33;;
15567;SDS011;7885;42.596;23.044;2022-12-18T09:24:29;23.27;;;18.03;;
15567;SDS011;7885;42.596;23.044;2022-12-18T09:26:56;20.97;;;15.20;;
15567;SDS011;7885;42.596;23.044;2022-12-18T09:29:23;20.60;;;16.07;;
15567;SDS011;7885;42.596;23.044;2022-12-18T09:31:49;19.63;;;16.10;;
15567;SDS011;7885;42.596;23.044;2022-12-18T09:34:16;19.13;;;15.37;;
15567;SDS011;7885;42.596;23.044;2022-12-18T09:36:44;19.80;;;15.80;;
15567;SDS011;7885;42.596;23.044;2022-12-18T09:39:11;19.23;;;14.90;;
15567;SDS011;7885;42.596;23.044;2022-12-18T09:41:41;19.73;;;15.17;;
15567;SDS011;7885;42.596;23.044;2022-12-18T09:44:13;18.37;;;14.67;;
15567;SDS011;7885;42.596;23.044;2022-12-18T09:46:46;18.40;;;14.97;;
15567;SDS011;7885;42.596;23.044;2022-12-18T09:49:16;17.20;;;14.53;;
15567;SDS011;7885;42.596;23.044;2022-12-18T09:51:49;16.77;;;13.60;;
15567;SDS011;7885;42.596;23.044;2022-12-18T09:54:20;17.43;;;12.50;;
15567;SDS011;7885;42.596;23.044;2022-12-18T09:56:48;18.13;;;13.97;;
15567;SDS011;7885;42.596;23.044;2022-12-18T09:59:17;18.53;;;13.63;;
15567;SDS011;7885;42.596;23.044;2022-12-18T10:01:49;17.10;;;14.03;;
15567;SDS011;7885;42.596;23.044;2022-12-18T10:04:16;17.60;;;13.80;;
15567;SDS011;7885;42.596;23.044;2022-12-18T10:06:44;20.00;;;15.83;;
15567;SDS011;7885;42.596;23.044;2022-12-18T10:09:20;20.03;;;16.10;;
15567;SDS011;7885;42.596;23.044;2022-12-18T10:11:56;19.53;;;14.73;;
15567;SDS011;7885;42.596;23.044;2022-12-18T10:14:30;20.23;;;15.80;;
15567;SDS011;7885;42.596;23.044;2022-12-18T10:17:04;20.20;;;14.60;;
15567;SDS011;7885;42.596;23.044;2022-12-18T10:19:39;17.73;;;13.47;;
15567;SDS011;7885;42.596;23.044;2022-12-18T10:22:18;17.10;;;13.00;;
15567;SDS011;7885;42.596;23.044;2022-12-18T10:24:53;16.57;;;12.63;;
15567;SDS011;7885;42.596;23.044;2022-12-18T10:27:25;17.83;;;14.30;;
15567;SDS011;7885;42.596;23.044;2022-12-18T10:29:56;15.73;;;13.23;;
15567;SDS011;7885;42.596;23.044;2022-12-18T10:32:24;17.67;;;14.20;;
15567;SDS011;7885;42.596;23.044;2022-12-18T10:34:53;14.47;;;12.13;;
15567;SDS011;7885;42.596;23.044;2022-12-18T10:37:23;16.97;;;13.20;;
15567;SDS011;7885;42.596;23.044;2022-12-18T10:40:04;41.87;;;25.80;;
15567;SDS011;7885;42.596;23.044;2022-12-18T10:42:34;16.60;;;13.17;;
15567;SDS011;7885;42.596;23.044;2022-12-18T10:45:02;16.00;;;12.90;;
15567;SDS011;7885;42.596;23.044;2022-12-18T10:47:31;19.40;;;13.80;;
15567;SDS011;7885;42.596;23.044;2022-12-18T10:50:00;16.13;;;12.47;;
15567;SDS011;7885;42.596;23.044;2022-12-18T10:52:29;15.00;;;12.40;;
15567;SDS011;7885;42.596;23.044;2022-12-18T10:54:57;17.30;;;14.03;;
15567;SDS011;7885;42.596;23.044;2022-12-18T10:57:31;16.67;;;13.33;;
15567;SDS011;7885;42.596;23.044;2022-12-18T11:00:06;17.43;;;13.40;;
15567;SDS011;7885;42.596;23.044;2022-12-18T11:02:47;16.03;;;12.47;;
15567;SDS011;7885;42.596;23.044;2022-12-18T11:05:27;17.00;;;13.00;;
15567;SDS011;7885;42.596;23.044;2022-12-18T11:07:57;17.07;;;13.20;;
15567;SDS011;7885;42.596;23.044;2022-12-18T11:10:28;15.80;;;12.63;;
15567;SDS011;7885;42.596;23.044;2022-12-18T11:13:08;18.30;;;13.47;;
15567;SDS011;7885;42.596;23.044;2022-12-18T11:15:43;16.17;;;12.67;;
15567;SDS011;7885;42.596;23.044;2022-12-18T11:18:16;16.53;;;13.00;;
15567;SDS011;7885;42.596;23.044;2022-12-18T11:20:49;18.87;;;13.40;;
15567;SDS011;7885;42.596;23.044;2022-12-18T11:23:19;17.07;;;13.33;;
15567;SDS011;7885;42.596;23.044;2022-12-18T11:28:35;17.03;;;12.20;;
15567;SDS011;7885;42.596;23.044;2022-12-18T11:31:20;17.17;;;11.93;;
15567;SDS011;7885;42.596;23.044;2022-12-18T11:34:02;15.53;;;12.00;;
15567;SDS011;7885;42.596;23.044;2022-12-18T11:36:36;17.37;;;13.23;;
15567;SDS011;7885;42.596;23.044;2022-12-18T11:39:10;16.47;;;13.00;;
15567;SDS011;7885;42.596;23.044;2022-12-18T11:41:45;17.33;;;12.40;;
15567;SDS011;7885;42.596;23.044;2022-12-18T11:44:35;18.00;;;14.03;;
15567;SDS011;7885;42.596;23.044;2022-12-18T11:47:08;22.47;;;15.77;;
15567;SDS011;7885;42.596;23.044;2022-12-18T11:49:45;24.03;;;15.83;;
15567;SDS011;7885;42.596;23.044;2022-12-18T11:52:15;17.80;;;13.87;;
15567;SDS011;7885;42.596;23.044;2022-12-18T11:54:46;15.77;;;12.47;;
15567;SDS011;7885;42.596;23.044;2022-12-18T11:57:19;14.63;;;11.47;;
15567;SDS011;7885;42.596;23.044;2022-12-18T12:00:00;15.23;;;11.30;;
15567;SDS011;7885;42.596;23.044;2022-12-18T12:02:42;14.40;;;11.07;;
15567;SDS011;7885;42.596;23.044;2022-12-18T12:05:31;13.20;;;10.20;;
15567;SDS011;7885;42.596;23.044;2022-12-18T12:08:09;13.63;;;10.70;;
15567;SDS011;7885;42.596;23.044;2022-12-18T12:10:46;12.70;;;10.10;;
15567;SDS011;7885;42.596;23.044;2022-12-18T12:13:25;11.90;;;9.70;;
15567;SDS011;7885;42.596;23.044;2022-12-18T12:16:04;12.67;;;10.33;;
15567;SDS011;7885;42.596;23.044;2022-12-18T12:18:43;12.13;;;9.67;;
15567;SDS011;7885;42.596;23.044;2022-12-18T12:21:22;15.17;;;10.43;;
15567;SDS011;7885;42.596;23.044;2022-12-18T12:23:55;12.23;;;10.13;;
15567;SDS011;7885;42.596;23.044;2022-12-18T12:26:32;14.37;;;11.50;;
15567;SDS011;7885;42.596;23.044;2022-12-18T12:32:28;19.77;;;16.57;;
15567;SDS011;7885;42.596;23.044;2022-12-18T12:35:13;15.80;;;12.23;;
15567;SDS011;7885;42.596;23.044;2022-12-18T12:37:54;17.07;;;13.57;;
15567;SDS011;7885;42.596;23.044;2022-12-18T12:40:31;15.73;;;11.50;;
15567;SDS011;7885;42.596;23.044;2022-12-18T12:43:05;14.90;;;12.53;;
15567;SDS011;7885;42.596;23.044;2022-12-18T12:45:42;13.70;;;10.30;;
15567;SDS011;7885;42.596;23.044;2022-12-18T12:48:16;14.73;;;12.10;;
15567;SDS011;7885;42.596;23.044;2022-12-18T12:50:47;17.47;;;13.13;;
15567;SDS011;7885;42.596;23.044;2022-12-18T12:53:19;13.93;;;10.37;;
15567;SDS011;7885;42.596;23.044;2022-12-18T12:55:56;18.57;;;12.90;;
15567;SDS011;7885;42.596;23.044;2022-12-18T12:58:29;15.20;;;11.63;;
15567;SDS011;7885;42.596;23.044;2022-12-18T13:01:03;15.73;;;12.60;;
15567;SDS011;7885;42.596;23.044;2022-12-18T13:03:41;17.57;;;13.47;;
15567;SDS011;7885;42.596;23.044;2022-12-18T13:06:16;16.17;;;13.17;;
15567;SDS011;7885;42.596;23.044;2022-12-18T13:08:51;17.10;;;12.73;;
15567;SDS011;7885;42.596;23.044;2022-12-18T13:11:31;15.67;;;10.93;;
15567;SDS011;7885;42.596;23.044;2022-12-18T13:14:28;12.90;;;10.77;;
15567;SDS011;7885;42.596;23.044;2022-12-18T13:20:04;16.17;;;11.63;;
15567;SDS011;7885;42.596;23.044;2022-12-18T13:22:34;19.20;;;15.30;;
15567;SDS011;7885;42.596;23.044;2022-12-18T13:25:02;16.77;;;14.03;;
15567;SDS011;7885;42.596;23.044;2022-12-18T13:27:46;15.90;;;12.50;;
15567;SDS011;7885;42.596;23.044;2022-12-18T13:30:46;19.10;;;14.27;;
15567;SDS011;7885;42.596;23.044;2022-12-18T13:36:16;21.73;;;16.33;;
15567;SDS011;7885;42.596;23.044;2022-12-18T13:39:11;11.90;;;10.47;;
15567;SDS011;7885;42.596;23.044;2022-12-18T13:41:49;15.07;;;10.73;;
15567;SDS011;7885;42.596;23.044;2022-12-18T13:44:24;16.00;;;12.10;;
15567;SDS011;7885;42.596;23.044;2022-12-18T13:46:58;25.40;;;17.37;;
15567;SDS011;7885;42.596;23.044;2022-12-18T13:49:27;29.07;;;19.53;;
15567;SDS011;7885;42.596;23.044;2022-12-18T13:52:02;26.77;;;19.90;;
15567;SDS011;7885;42.596;23.044;2022-12-18T13:54:41;20.13;;;15.97;;
15567;SDS011;7885;42.596;23.044;2022-12-18T13:57:25;15.93;;;12.93;;
15567;SDS011;7885;42.596;23.044;2022-12-18T14:13:23;23.20;;;15.60;;
15567;SDS011;7885;42.596;23.044;2022-12-18T14:15:53;21.43;;;15.80;;
15567;SDS011;7885;42.596;23.044;2022-12-18T14:18:21;21.60;;;15.13;;
15567;SDS011;7885;42.596;23.044;2022-12-18T14:20:51;20.47;;;15.03;;
15567;SDS011;7885;42.596;23.044;2022-12-18T14:23:27;20.90;;;15.90;;
15567;SDS011;7885;42.596;23.044;2022-12-18T14:25:56;14.87;;;12.20;;
15567;SDS011;7885;42.596;23.044;2022-12-18T14:35:13;14.87;;;12.03;;
15567;SDS011;7885;42.596;23.044;2022-12-18T14:37:40;21.90;;;16.37;;
15567;SDS011;7885;42.596;23.044;2022-12-18T14:40:11;19.23;;;14.80;;
15567;SDS011;7885;42.596;23.044;2022-12-18T14:42:39;41.67;;;35.60;;
15567;SDS011;7885;42.596;23.044;2022-12-18T14:45:32;30.30;;;24.47;;
15567;SDS011;7885;42.596;23.044;2022-12-18T14:48:07;35.97;;;26.93;;
15567;SDS011;7885;42.596;23.044;2022-12-18T14:50:40;20.27;;;15.73;;
15567;SDS011;7885;42.596;23.044;2022-12-18T14:53:15;20.23;;;15.30;;
15567;SDS011;7885;42.596;23.044;2022-12-18T14:55:47;29.20;;;19.57;;
15567;SDS011;7885;42.596;23.044;2022-12-18T14:58:14;26.47;;;19.27;;
15567;SDS011;7885;42.596;23.044;2022-12-18T15:00:43;22.27;;;17.00;;
15567;SDS011;7885;42.596;23.044;2022-12-18T15:03:10;21.67;;;17.30;;
15567;SDS011;7885;42.596;23.044;2022-12-18T15:05:42;21.37;;;18.03;;
15567;SDS011;7885;42.596;23.044;2022-12-18T15:08:24;20.03;;;15.73;;
15567;SDS011;7885;42.596;23.044;2022-12-18T15:10:55;24.33;;;16.17;;
15567;SDS011;7885;42.596;23.044;2022-12-18T15:13:23;24.13;;;17.67;;
15567;SDS011;7885;42.596;23.044;2022-12-18T15:15:52;24.30;;;17.47;;
15567;SDS011;7885;42.596;23.044;2022-12-18T15:18:23;23.90;;;17.30;;
15567;SDS011;7885;42.596;23.044;2022-12-18T15:20:57;21.03;;;16.20;;
15567;SDS011;7885;42.596;23.044;2022-12-18T15:23:26;22.37;;;15.83;;
15567;SDS011;7885;42.596;23.044;2022-12-18T15:25:57;21.93;;;16.00;;